Terminal Aerodrome Forecast
Issued by NWS Charleston, WV

Current Version | Previous Version | Text Only | Print | Product List | Glossary Off
Versions: 1 2 3 4 5 6 7 8 9 10 11 12 13 14 15 16 17 18 19 20 21 22 23 24 25 26 27

000
FTUS41 KRLX 271100
TAFEKN
TAF
KEKN 271135Z 2712/2812 00000KT 6SM BR SCT022 OVC040
     FM271500 30004KT 4SM -SHSN BR OVC015
     FM272200 29008KT 6SM BR OVC020
     FM280300 29007KT 4SM -SHSN BR OVC008
     FM280900 29008KT 5SM BR OVC008=

USA.gov is the U.S. government's official web portal to all federal, state and local government web resources and services.